createdAt,value
2023-03-17T00:01:14.570Z,101121.25
2023-03-17T00:06:24.978Z,101117.42
2023-03-17T00:11:28.302Z,101109.45
2023-03-17T00:16:35.012Z,101109.02
2023-03-17T00:21:37.831Z,101101.67
2023-03-17T00:26:41.252Z,101110.83
2023-03-17T00:31:45.550Z,101105.73
2023-03-17T00:36:51.081Z,101102.95
2023-03-17T00:41:54.161Z,101096.60
2023-03-17T00:46:57.910Z,101097.32
2023-03-17T00:52:01.808Z,101101.11
2023-03-17T00:57:04.679Z,101095.59
2023-03-17T01:02:13.269Z,101097.75
2023-03-17T01:07:16.840Z,101098.56
2023-03-17T01:12:20.455Z,101096.34
2023-03-17T01:17:23.172Z,101101.18
2023-03-17T01:22:25.973Z,101098.45
2023-03-17T01:27:29.188Z,101105.64
2023-03-17T01:32:32.102Z,101095.86
2023-03-17T01:37:34.894Z,101100.20
2023-03-17T01:42:38.304Z,101095.88
2023-03-17T01:47:41.056Z,101094.05
2023-03-17T01:52:43.806Z,101093.14
2023-03-17T01:57:51.531Z,101091.39
2023-03-17T02:02:56.784Z,101089.36
2023-03-17T02:08:00.231Z,101094.16
2023-03-17T02:13:05.941Z,101089.83
2023-03-17T02:18:11.598Z,101093.98
2023-03-17T02:23:24.147Z,101095.70
2023-03-17T02:28:30.985Z,101099.61
2023-03-17T02:33:33.668Z,101100.80
2023-03-17T02:38:37.572Z,101095.85
2023-03-17T02:43:41.567Z,101099.98
2023-03-17T02:48:46.151Z,101095.84
2023-03-17T02:53:48.906Z,101097.58
2023-03-17T02:58:52.069Z,101094.44
2023-03-17T03:03:55.484Z,101095.67
2023-03-17T03:08:58.571Z,101091.95
2023-03-17T03:14:01.241Z,101092.30
2023-03-17T03:19:04.492Z,101092.16
2023-03-17T03:24:07.407Z,101093.45
2023-03-17T03:29:10.092Z,101091.41
2023-03-17T03:34:12.804Z,101087.48
2023-03-17T03:39:15.532Z,101079.42
2023-03-17T03:44:18.303Z,101075.36
2023-03-17T03:49:21.420Z,101066.89
2023-03-17T03:54:24.062Z,101071.80
2023-03-17T03:59:26.822Z,101068.70
2023-03-17T04:04:29.555Z,101073.04
2023-03-17T04:09:32.342Z,101077.17
2023-03-17T04:14:35.088Z,101075.03
2023-03-17T04:19:39.369Z,101072.38
2023-03-17T04:24:42.345Z,101076.30
2023-03-17T04:29:45.389Z,101063.17
2023-03-17T04:34:48.026Z,101064.41
2023-03-17T04:39:51.478Z,101072.46
2023-03-17T04:44:54.141Z,101069.89
2023-03-17T04:49:56.863Z,101077.20
2023-03-17T04:54:59.552Z,101083.38
2023-03-17T05:00:02.286Z,101082.04
2023-03-17T05:05:05.858Z,101079.95
2023-03-17T05:10:09.626Z,101086.32
2023-03-17T05:15:12.702Z,101084.55
2023-03-17T05:20:15.722Z,101085.16
2023-03-17T05:25:18.518Z,101084.88
2023-03-17T05:30:21.223Z,101085.17
2023-03-17T05:35:24.089Z,101076.33
2023-03-17T05:40:26.920Z,101077.35
2023-03-17T05:45:30.234Z,101087.89
2023-03-17T05:50:33.666Z,101100.71
2023-03-17T05:55:36.654Z,101090.59
2023-03-17T06:00:39.360Z,101090.21
2023-03-17T06:05:42.160Z,101093.88
2023-03-17T06:10:44.926Z,101103.05
2023-03-17T06:15:49.135Z,101105.21
2023-03-17T06:20:52.000Z,101119.38
2023-03-17T06:25:55.074Z,101131.79
2023-03-17T06:30:58.261Z,101123.97
2023-03-17T06:36:01.890Z,101123.13
2023-03-17T06:41:04.605Z,101129.76
2023-03-17T06:46:07.487Z,101128.29
2023-03-17T06:51:11.060Z,101122.26
2023-03-17T06:56:28.914Z,101114.72
2023-03-17T07:01:32.505Z,101126.08
2023-03-17T07:06:35.369Z,101131.48
2023-03-17T07:11:38.150Z,101117.46
2023-03-17T07:16:40.991Z,101110.52
2023-03-17T07:21:45.972Z,101111.19
2023-03-17T07:26:49.756Z,101110.84
2023-03-17T07:31:55.193Z,101118.31
2023-03-17T07:36:57.965Z,101115.94
2023-03-17T07:42:00.778Z,101119.50
2023-03-17T07:47:03.546Z,101116.86
2023-03-17T07:52:07.137Z,101122.29
2023-03-17T07:57:10.032Z,101126.11
2023-03-17T08:02:17.359Z,101136.35
2023-03-17T08:07:20.285Z,101135.65
2023-03-17T08:12:23.971Z,101137.05
2023-03-17T08:17:27.533Z,101136.17
2023-03-17T08:22:30.611Z,101134.61
2023-03-17T08:27:34.291Z,101133.02
2023-03-17T08:32:37.722Z,101131.44
2023-03-17T08:37:45.896Z,101129.08
2023-03-17T08:42:49.544Z,101130.02
2023-03-17T08:47:58.636Z,101127.14
2023-03-17T08:53:03.304Z,101122.96
2023-03-17T08:58:06.061Z,101120.12
2023-03-17T09:03:08.732Z,101126.81
2023-03-17T09:08:13.001Z,101119.35
2023-03-17T09:13:17.706Z,101115.11
2023-03-17T09:18:22.097Z,101113.20
2023-03-17T09:23:25.328Z,101117.07
2023-03-17T09:28:29.273Z,101115.11
2023-03-17T09:33:32.817Z,101104.48
2023-03-17T09:38:36.154Z,101090.31
2023-03-17T09:43:56.743Z,101088.85
2023-03-17T09:49:07.434Z,101090.89
2023-03-17T09:54:19.185Z,101091.80
2023-03-17T09:59:35.601Z,101078.77
2023-03-17T10:04:38.360Z,101072.80
2023-03-17T10:09:51.859Z,101080.00
2023-03-17T10:15:26.962Z,101075.14
2023-03-17T10:20:34.653Z,101070.63
2023-03-17T10:25:38.226Z,101073.08
2023-03-17T10:30:40.991Z,101068.11
2023-03-17T10:35:45.018Z,101057.86
2023-03-17T10:40:56.845Z,101048.42
2023-03-17T10:46:02.728Z,101034.78
2023-03-17T10:51:08.838Z,101029.16
2023-03-17T10:56:22.413Z,101016.95
2023-03-17T11:01:41.395Z,101012.33
2023-03-17T11:06:44.750Z,101010.95
2023-03-17T11:11:50.135Z,101007.11
2023-03-17T11:17:27.587Z,101007.42
2023-03-17T11:22:43.944Z,101003.14
2023-03-17T11:27:59.820Z,100992.23
2023-03-17T11:33:56.845Z,100987.43
2023-03-17T11:39:12.646Z,100972.80
2023-03-17T11:44:32.135Z,100970.10
2023-03-17T11:49:38.349Z,100968.66
2023-03-17T11:54:58.985Z,100962.20
2023-03-17T12:00:17.004Z,100965.99
2023-03-17T12:05:24.439Z,100958.58
2023-03-17T12:10:38.067Z,100954.41
2023-03-17T12:15:56.547Z,100947.39
2023-03-17T12:21:32.922Z,100931.96
2023-03-17T12:26:59.493Z,100914.78
2023-03-17T12:32:27.132Z,100906.70
2023-03-17T12:37:30.976Z,100895.16
2023-03-17T12:42:38.464Z,100883.78
2023-03-17T12:47:58.524Z,100878.62
2023-03-17T12:53:29.820Z,100883.09
2023-03-17T12:58:37.733Z,100874.84
2023-03-17T13:04:11.093Z,100859.81
2023-03-17T13:09:31.007Z,100857.48
2023-03-17T13:14:41.892Z,100862.09
2023-03-17T13:20:07.537Z,100863.38
2023-03-17T13:25:32.525Z,100864.34
2023-03-17T13:30:35.671Z,100856.66
2023-03-17T13:35:53.319Z,100859.93
2023-03-17T13:41:17.892Z,100850.82
2023-03-17T13:46:30.668Z,100844.83
2023-03-17T13:51:34.352Z,100837.62
2023-03-17T13:56:40.508Z,100842.72
2023-03-17T14:01:47.697Z,100846.52
2023-03-17T14:06:53.935Z,100840.23
2023-03-17T14:12:00.084Z,100842.30
2023-03-17T14:17:12.239Z,100837.47
2023-03-17T14:22:21.968Z,100842.17
2023-03-17T14:27:26.537Z,100832.83
2023-03-17T14:32:29.565Z,100833.96
2023-03-17T14:37:32.255Z,100840.00
2023-03-17T14:42:34.981Z,100835.25
2023-03-17T14:47:41.058Z,100820.13
2023-03-17T14:52:44.358Z,100814.89
2023-03-17T14:57:52.744Z,100817.35
2023-03-17T15:02:58.152Z,100822.40
2023-03-17T15:08:01.138Z,100825.88
2023-03-17T15:13:06.330Z,100817.41
2023-03-17T15:18:15.374Z,100804.36
2023-03-17T15:23:22.399Z,100793.67
2023-03-17T15:28:29.000Z,100802.08
2023-03-17T15:33:37.008Z,100804.13
2023-03-17T15:38:40.490Z,100803.09
2023-03-17T15:43:43.185Z,100791.21
2023-03-17T15:48:46.620Z,100770.80
2023-03-17T15:53:49.405Z,100759.50
2023-03-17T15:58:52.550Z,100757.94
2023-03-17T16:03:55.616Z,100756.16
2023-03-17T16:08:58.356Z,100756.39
2023-03-17T16:14:01.118Z,100762.55
2023-03-17T16:19:17.659Z,100764.39
2023-03-17T16:24:23.210Z,100770.40
2023-03-17T16:29:26.281Z,100772.79
2023-03-17T16:34:28.980Z,100767.92
2023-03-17T16:39:32.347Z,100769.31
2023-03-17T16:44:35.066Z,100769.58
2023-03-17T16:49:37.907Z,100768.02
2023-03-17T16:54:40.728Z,100765.89
2023-03-17T16:59:43.645Z,100760.02
2023-03-17T17:04:46.551Z,100751.52
2023-03-17T17:09:49.233Z,100746.27
2023-03-17T17:14:51.934Z,100747.76
2023-03-17T17:19:54.633Z,100753.92
2023-03-17T17:24:57.312Z,100758.85
2023-03-17T17:30:00.064Z,100756.46
2023-03-17T17:35:03.241Z,100761.20
2023-03-17T17:40:08.794Z,100762.08
2023-03-17T17:45:11.533Z,100757.77
2023-03-17T17:50:24.993Z,100762.29
2023-03-17T17:55:27.717Z,100760.22
2023-03-17T18:00:30.787Z,100759.70
2023-03-17T18:05:33.524Z,100748.96
2023-03-17T18:10:36.261Z,100745.66
2023-03-17T18:15:39.072Z,100747.23
2023-03-17T18:20:41.812Z,100747.58
2023-03-17T18:25:44.740Z,100742.04
2023-03-17T18:30:47.773Z,100737.70
2023-03-17T18:35:52.285Z,100733.90
2023-03-17T18:40:55.007Z,100739.61
2023-03-17T18:45:57.787Z,100740.84
2023-03-17T18:51:00.959Z,100733.90
2023-03-17T18:56:03.927Z,100733.04
2023-03-17T19:01:06.768Z,100734.77
2023-03-17T19:06:15.056Z,100739.10
2023-03-17T19:11:21.685Z,100743.44
2023-03-17T19:16:29.080Z,100746.23
2023-03-17T19:21:32.580Z,100741.21
2023-03-17T19:26:35.779Z,100733.23
2023-03-17T19:31:41.488Z,100735.50
2023-03-17T19:36:46.508Z,100733.08
2023-03-17T19:41:53.197Z,100737.23
2023-03-17T19:46:56.004Z,100734.64
2023-03-17T19:51:58.699Z,100744.01
2023-03-17T19:57:01.423Z,100739.33
2023-03-17T20:02:04.123Z,100732.76
2023-03-17T20:07:06.938Z,100734.30
2023-03-17T20:12:09.705Z,100739.34
2023-03-17T20:17:14.242Z,100734.68
2023-03-17T20:22:17.306Z,100731.39
2023-03-17T20:27:20.566Z,100732.08
2023-03-17T20:32:23.261Z,100734.52
2023-03-17T20:37:26.062Z,100725.68
2023-03-17T20:42:28.722Z,100727.77
2023-03-17T20:47:31.600Z,100731.40
2023-03-17T20:52:36.375Z,100730.19
2023-03-17T20:57:40.779Z,100743.18
2023-03-17T21:02:50.891Z,100735.73
2023-03-17T21:07:53.832Z,100728.98
2023-03-17T21:12:56.513Z,100726.55
2023-03-17T21:17:59.227Z,100724.30
2023-03-17T21:23:04.699Z,100718.58
2023-03-17T21:28:08.224Z,100716.34
2023-03-17T21:33:11.362Z,100715.13
2023-03-17T21:38:14.216Z,100708.71
2023-03-17T21:43:17.430Z,100694.83
2023-03-17T21:48:20.949Z,100688.05
2023-03-17T21:53:23.953Z,100684.73
2023-03-17T21:58:26.757Z,100683.50
2023-03-17T22:03:29.570Z,100685.58
2023-03-17T22:08:33.503Z,100685.95
2023-03-17T22:13:36.428Z,100693.40
2023-03-17T22:18:39.447Z,100689.94
2023-03-17T22:23:42.592Z,100692.55
2023-03-17T22:28:46.887Z,100690.13
2023-03-17T22:33:52.643Z,100683.71
2023-03-17T22:38:56.648Z,100682.70
2023-03-17T22:43:59.325Z,100681.31
2023-03-17T22:49:02.007Z,100678.55
2023-03-17T22:54:04.783Z,100683.05
2023-03-17T22:59:07.486Z,100687.91
2023-03-17T23:04:10.192Z,100682.73
2023-03-17T23:09:13.248Z,100680.31
2023-03-17T23:14:16.369Z,100677.70
2023-03-17T23:19:19.490Z,100684.98
2023-03-17T23:24:22.345Z,100678.58
2023-03-17T23:29:25.180Z,100676.69
2023-03-17T23:34:28.487Z,100676.52
2023-03-17T23:39:31.315Z,100668.38
2023-03-17T23:44:34.080Z,100665.60
2023-03-17T23:49:36.877Z,100664.39
2023-03-17T23:54:39.818Z,100655.56
2023-03-17T23:59:43.413Z,100657.98
